sensor_id;sensor_type;location;lat;lon;timestamp;pressure;altitude;pressure_sealevel;temperature;humidity
28000;BME280;15328;50.860;10.562;2023-08-17T00:02:15;96892.84;;;20.76;68.93
28000;BME280;15328;50.860;10.562;2023-08-17T00:07:16;96896.91;;;20.63;69.30
28000;BME280;15328;50.860;10.562;2023-08-17T00:12:16;96893.94;;;20.64;69.67
28000;BME280;15328;50.860;10.562;2023-08-17T00:17:16;96877.44;;;20.71;69.67
28000;BME280;15328;50.860;10.562;2023-08-17T00:22:17;96893.91;;;20.75;69.63
28000;BME280;15328;50.860;10.562;2023-08-17T00:27:17;96880.13;;;20.76;69.99
28000;BME280;15328;50.860;10.562;2023-08-17T00:32:17;96901.75;;;20.76;69.95
28000;BME280;15328;50.860;10.562;2023-08-17T00:37:18;96892.84;;;20.76;69.98
28000;BME280;15328;50.860;10.562;2023-08-17T00:42:18;96886.63;;;20.70;70.14
28000;BME280;15328;50.860;10.562;2023-08-17T00:47:18;96885.81;;;20.59;70.19
28000;BME280;15328;50.860;10.562;2023-08-17T00:52:19;96858.25;;;20.57;70.52
28000;BME280;15328;50.860;10.562;2023-08-17T00:57:20;96853.94;;;20.46;70.95
28000;BME280;15328;50.860;10.562;2023-08-17T01:02:21;96840.94;;;20.38;71.58
28000;BME280;15328;50.860;10.562;2023-08-17T01:07:21;96817.44;;;20.33;71.83
28000;BME280;15328;50.860;10.562;2023-08-17T01:12:32;96812.59;;;20.30;72.10
28000;BME280;15328;50.860;10.562;2023-08-17T01:17:42;96809.84;;;20.25;71.97
28000;BME280;15328;50.860;10.562;2023-08-17T01:22:45;96817.16;;;20.15;72.46
28000;BME280;15328;50.860;10.562;2023-08-17T01:27:48;96817.97;;;20.15;72.67
28000;BME280;15328;50.860;10.562;2023-08-17T01:32:54;96752.63;;;20.08;73.61
28000;BME280;15328;50.860;10.562;2023-08-17T01:38:00;96747.22;;;20.03;73.79
28000;BME280;15328;50.860;10.562;2023-08-17T01:43:03;96740.72;;;20.14;73.78
28000;BME280;15328;50.860;10.562;2023-08-17T01:48:05;96748.00;;;20.24;73.48
28000;BME280;15328;50.860;10.562;2023-08-17T01:53:05;96766.13;;;20.33;73.21
28000;BME280;15328;50.860;10.562;2023-08-17T01:58:05;96773.94;;;20.35;72.96
28000;BME280;15328;50.860;10.562;2023-08-17T02:03:06;96776.41;;;20.42;72.82
28000;BME280;15328;50.860;10.562;2023-08-17T02:08:06;96786.66;;;20.45;72.43
28000;BME280;15328;50.860;10.562;2023-08-17T02:13:07;96789.34;;;20.45;72.49
28000;BME280;15328;50.860;10.562;2023-08-17T02:18:08;96788.81;;;20.43;72.48
28000;BME280;15328;50.860;10.562;2023-08-17T02:23:08;96785.03;;;20.49;72.39
28000;BME280;15328;50.860;10.562;2023-08-17T02:28:08;96767.22;;;20.43;72.22
28000;BME280;15328;50.860;10.562;2023-08-17T02:33:09;96775.81;;;20.40;72.31
28000;BME280;15328;50.860;10.562;2023-08-17T02:38:09;96772.06;;;20.35;72.47
28000;BME280;15328;50.860;10.562;2023-08-17T02:43:10;96761.50;;;20.39;72.24
28000;BME280;15328;50.860;10.562;2023-08-17T02:48:10;96758.81;;;20.39;72.20
28000;BME280;15328;50.860;10.562;2023-08-17T02:53:10;96746.66;;;20.31;71.93
28000;BME280;15328;50.860;10.562;2023-08-17T02:58:11;96752.06;;;20.21;72.37
28000;BME280;15328;50.860;10.562;2023-08-17T03:03:11;96741.56;;;20.10;72.79
28000;BME280;15328;50.860;10.562;2023-08-17T03:08:12;96754.25;;;20.04;72.99
28000;BME280;15328;50.860;10.562;2023-08-17T03:13:12;96741.81;;;19.98;73.49
28000;BME280;15328;50.860;10.562;2023-08-17T03:18:12;96729.69;;;20.00;73.26
28000;BME280;15328;50.860;10.562;2023-08-17T03:23:13;96726.69;;;19.92;73.50
28000;BME280;15328;50.860;10.562;2023-08-17T03:28:13;96726.44;;;19.88;73.70
28000;BME280;15328;50.860;10.562;2023-08-17T03:33:13;96728.06;;;19.84;73.84
28000;BME280;15328;50.860;10.562;2023-08-17T03:38:14;96724.81;;;19.77;74.57
28000;BME280;15328;50.860;10.562;2023-08-17T03:43:14;96714.81;;;19.72;74.88
28000;BME280;15328;50.860;10.562;2023-08-17T03:48:15;96721.84;;;19.79;74.91
28000;BME280;15328;50.860;10.562;2023-08-17T03:53:15;96715.91;;;19.82;74.67
28000;BME280;15328;50.860;10.562;2023-08-17T03:58:17;96721.31;;;19.82;74.80
28000;BME280;15328;50.860;10.562;2023-08-17T04:03:18;96723.19;;;19.86;74.37
28000;BME280;15328;50.860;10.562;2023-08-17T04:08:19;96731.00;;;19.88;74.04
28000;BME280;15328;50.860;10.562;2023-08-17T04:13:19;96735.06;;;19.90;74.05
28000;BME280;15328;50.860;10.562;2023-08-17T04:18:20;96741.81;;;19.93;73.95
28000;BME280;15328;50.860;10.562;2023-08-17T04:23:20;96739.66;;;19.95;73.65
28000;BME280;15328;50.860;10.562;2023-08-17T04:28:20;96742.63;;;19.98;73.40
28000;BME280;15328;50.860;10.562;2023-08-17T04:33:21;96748.28;;;19.97;73.28
28000;BME280;15328;50.860;10.562;2023-08-17T04:38:21;96745.84;;;19.95;73.47
28000;BME280;15328;50.860;10.562;2023-08-17T04:43:22;96737.47;;;19.97;73.52
28000;BME280;15328;50.860;10.562;2023-08-17T04:48:22;96735.34;;;19.89;73.90
28000;BME280;15328;50.860;10.562;2023-08-17T04:53:22;96734.53;;;19.93;74.16
28000;BME280;15328;50.860;10.562;2023-08-17T04:58:23;96727.50;;;19.97;73.96
28000;BME280;15328;50.860;10.562;2023-08-17T05:03:23;96745.34;;;20.03;73.59
28000;BME280;15328;50.860;10.562;2023-08-17T05:08:24;96742.63;;;20.03;73.45
28000;BME280;15328;50.860;10.562;2023-08-17T05:13:24;96755.31;;;20.03;73.06
28000;BME280;15328;50.860;10.562;2023-08-17T05:18:24;96755.31;;;20.03;73.25
28000;BME280;15328;50.860;10.562;2023-08-17T05:23:25;96763.66;;;19.96;73.56
28000;BME280;15328;50.860;10.562;2023-08-17T05:28:25;96760.44;;;19.94;73.48
28000;BME280;15328;50.860;10.562;2023-08-17T05:33:25;96762.88;;;19.96;73.78
28000;BME280;15328;50.860;10.562;2023-08-17T05:38:26;96768.56;;;20.04;73.83
28000;BME280;15328;50.860;10.562;2023-08-17T05:43:26;96759.91;;;20.08;73.66
28000;BME280;15328;50.860;10.562;2023-08-17T05:48:26;96760.72;;;20.08;73.86
28000;BME280;15328;50.860;10.562;2023-08-17T05:53:27;96754.22;;;20.14;73.50
28000;BME280;15328;50.860;10.562;2023-08-17T05:58:27;96771.25;;;20.20;73.62
28000;BME280;15328;50.860;10.562;2023-08-17T06:03:27;96773.41;;;20.18;73.30
28000;BME280;15328;50.860;10.562;2023-08-17T06:08:28;96767.44;;;20.26;73.81
28000;BME280;15328;50.860;10.562;2023-08-17T06:13:29;96776.91;;;20.38;73.83
28000;BME280;15328;50.860;10.562;2023-08-17T06:18:30;96775.00;;;20.54;73.78
28000;BME280;15328;50.860;10.562;2023-08-17T06:23:30;96781.78;;;20.57;73.79
28000;BME280;15328;50.860;10.562;2023-08-17T06:28:31;96778.81;;;20.63;73.84
28000;BME280;15328;50.860;10.562;2023-08-17T06:33:31;96785.50;;;20.76;73.51
28000;BME280;15328;50.860;10.562;2023-08-17T06:38:32;96786.88;;;20.74;73.30
28000;BME280;15328;50.860;10.562;2023-08-17T06:43:32;96774.44;;;20.83;73.46
28000;BME280;15328;50.860;10.562;2023-08-17T06:48:32;96774.69;;;20.81;73.24
28000;BME280;15328;50.860;10.562;2023-08-17T06:53:33;96778.47;;;20.90;73.72
28000;BME280;15328;50.860;10.562;2023-08-17T06:58:33;96787.91;;;20.93;73.42
28000;BME280;15328;50.860;10.562;2023-08-17T07:03:33;96797.88;;;21.03;73.55
28000;BME280;15328;50.860;10.562;2023-08-17T07:08:34;96800.03;;;21.11;73.12
28000;BME280;15328;50.860;10.562;2023-08-17T07:13:34;96797.31;;;21.16;72.90
28000;BME280;15328;50.860;10.562;2023-08-17T07:18:34;96801.34;;;21.18;72.76
28000;BME280;15328;50.860;10.562;2023-08-17T07:23:35;96815.47;;;21.10;72.26
28000;BME280;15328;50.860;10.562;2023-08-17T07:28:35;96819.81;;;20.96;72.20
28000;BME280;15328;50.860;10.562;2023-08-17T07:33:36;96819.03;;;20.85;72.77
28000;BME280;15328;50.860;10.562;2023-08-17T07:38:36;96824.19;;;20.82;72.68
28000;BME280;15328;50.860;10.562;2023-08-17T07:43:36;96823.34;;;20.76;73.27
28000;BME280;15328;50.860;10.562;2023-08-17T07:48:37;96824.44;;;20.75;73.27
28000;BME280;15328;50.860;10.562;2023-08-17T07:53:37;96820.13;;;20.74;73.27
28000;BME280;15328;50.860;10.562;2023-08-17T07:58:38;96819.56;;;20.77;73.21
28000;BME280;15328;50.860;10.562;2023-08-17T08:03:39;96816.59;;;20.79;73.50
28000;BME280;15328;50.860;10.562;2023-08-17T08:08:40;96805.53;;;20.85;73.97
28000;BME280;15328;50.860;10.562;2023-08-17T08:13:40;96811.44;;;20.92;73.57
28000;BME280;15328;50.860;10.562;2023-08-17T08:18:41;96811.19;;;20.89;73.40
28000;BME280;15328;50.860;10.562;2023-08-17T08:23:41;96814.16;;;20.92;73.75
28000;BME280;15328;50.860;10.562;2023-08-17T08:28:41;96814.09;;;21.13;73.71
28000;BME280;15328;50.860;10.562;2023-08-17T08:33:43;96824.38;;;21.06;73.24
28000;BME280;15328;50.860;10.562;2023-08-17T08:38:44;96808.97;;;21.11;73.38
28000;BME280;15328;50.860;10.562;2023-08-17T08:43:44;96821.09;;;21.24;73.36
28000;BME280;15328;50.860;10.562;2023-08-17T08:48:45;96829.16;;;21.34;72.90
28000;BME280;15328;50.860;10.562;2023-08-17T08:53:54;96828.34;;;21.44;73.14
28000;BME280;15328;50.860;10.562;2023-08-17T08:59:04;96832.63;;;21.50;72.60
28000;BME280;15328;50.860;10.562;2023-08-17T09:04:05;96832.84;;;21.58;72.60
28000;BME280;15328;50.860;10.562;2023-08-17T09:09:06;96833.59;;;21.74;72.41
28000;BME280;15328;50.860;10.562;2023-08-17T09:14:07;96835.44;;;21.84;71.88
28000;BME280;15328;50.860;10.562;2023-08-17T09:19:08;96828.88;;;21.90;71.74
28000;BME280;15328;50.860;10.562;2023-08-17T09:24:09;96842.94;;;21.97;71.79
28000;BME280;15328;50.860;10.562;2023-08-17T09:29:20;96838.34;;;21.98;71.81
28000;BME280;15328;50.860;10.562;2023-08-17T09:34:20;96842.09;;;22.07;71.47
28000;BME280;15328;50.860;10.562;2023-08-17T09:39:21;96837.16;;;22.14;70.62
28000;BME280;15328;50.860;10.562;2023-08-17T09:44:22;96827.69;;;22.11;70.62
28000;BME280;15328;50.860;10.562;2023-08-17T09:49:25;96820.91;;;22.14;71.20
28000;BME280;15328;50.860;10.562;2023-08-17T09:54:25;96809.72;;;22.26;71.02
28000;BME280;15328;50.860;10.562;2023-08-17T09:59:28;96818.63;;;22.31;70.94
28000;BME280;15328;50.860;10.562;2023-08-17T10:04:30;96813.63;;;22.43;71.05
28000;BME280;15328;50.860;10.562;2023-08-17T10:09:36;96817.38;;;22.52;70.52
28000;BME280;15328;50.860;10.562;2023-08-17T10:14:49;96813.78;;;22.57;70.70
28000;BME280;15328;50.860;10.562;2023-08-17T10:19:57;96814.25;;;22.64;70.43
28000;BME280;15328;50.860;10.562;2023-08-17T10:25:00;96819.06;;;22.72;70.26
28000;BME280;15328;50.860;10.562;2023-08-17T10:30:01;96817.81;;;22.94;70.79
28000;BME280;15328;50.860;10.562;2023-08-17T10:35:02;96827.28;;;23.20;70.23
28000;BME280;15328;50.860;10.562;2023-08-17T10:40:03;96819.41;;;23.42;68.83
28000;BME280;15328;50.860;10.562;2023-08-17T10:45:27;96821.91;;;23.39;68.08
28000;BME280;15328;50.860;10.562;2023-08-17T10:50:28;96816.78;;;23.37;67.91
28000;BME280;15328;50.860;10.562;2023-08-17T10:55:40;96819.94;;;23.44;68.24
28000;BME280;15328;50.860;10.562;2023-08-17T11:00:41;96814.78;;;23.43;68.13
28000;BME280;15328;50.860;10.562;2023-08-17T11:05:53;96819.34;;;23.48;67.96
28000;BME280;15328;50.860;10.562;2023-08-17T11:11:04;96819.66;;;23.46;68.02
28000;BME280;15328;50.860;10.562;2023-08-17T11:16:06;96818.03;;;23.45;68.09
28000;BME280;15328;50.860;10.562;2023-08-17T11:21:07;96818.63;;;23.42;67.73
28000;BME280;15328;50.860;10.562;2023-08-17T11:26:09;96829.19;;;23.43;68.09
28000;BME280;15328;50.860;10.562;2023-08-17T11:31:11;96832.78;;;23.39;67.96
28000;BME280;15328;50.860;10.562;2023-08-17T11:36:11;96820.00;;;23.39;68.48
28000;BME280;15328;50.860;10.562;2023-08-17T11:41:12;96825.66;;;23.43;68.24
28000;BME280;15328;50.860;10.562;2023-08-17T11:46:13;96832.63;;;23.49;68.00
28000;BME280;15328;50.860;10.562;2023-08-17T11:51:13;96825.06;;;23.46;67.84
28000;BME280;15328;50.860;10.562;2023-08-17T11:56:14;96823.91;;;23.52;67.92
28000;BME280;15328;50.860;10.562;2023-08-17T12:01:14;96821.47;;;23.51;68.00
28000;BME280;15328;50.860;10.562;2023-08-17T12:06:18;96814.38;;;23.55;67.60
28000;BME280;15328;50.860;10.562;2023-08-17T12:11:18;96814.44;;;23.50;67.99
28000;BME280;15328;50.860;10.562;2023-08-17T12:16:20;96813.84;;;23.53;67.66
28000;BME280;15328;50.860;10.562;2023-08-17T12:21:24;96809.22;;;23.53;67.38
28000;BME280;15328;50.860;10.562;2023-08-17T12:26:24;96811.66;;;23.55;68.02
28000;BME280;15328;50.860;10.562;2023-08-17T12:31:25;96817.09;;;23.55;67.96
28000;BME280;15328;50.860;10.562;2023-08-17T12:36:25;96809.44;;;23.62;67.75
28000;BME280;15328;50.860;10.562;2023-08-17T12:41:25;96806.06;;;23.70;68.29
28000;BME280;15328;50.860;10.562;2023-08-17T12:46:26;96798.16;;;23.92;68.14
28000;BME280;15328;50.860;10.562;2023-08-17T12:51:26;96795.84;;;24.18;68.13
28000;BME280;15328;50.860;10.562;2023-08-17T12:56:26;96788.28;;;24.34;67.35
28000;BME280;15328;50.860;10.562;2023-08-17T13:01:27;96785.59;;;24.48;67.03
28000;BME280;15328;50.860;10.562;2023-08-17T13:06:27;96790.75;;;24.49;66.86
28000;BME280;15328;50.860;10.562;2023-08-17T13:11:28;96786.22;;;24.58;66.17
28000;BME280;15328;50.860;10.562;2023-08-17T13:16:28;96784.44;;;24.68;65.51
28000;BME280;15328;50.860;10.562;2023-08-17T13:21:28;96780.53;;;24.74;65.88
28000;BME280;15328;50.860;10.562;2023-08-17T13:26:29;96774.47;;;24.90;64.86
28000;BME280;15328;50.860;10.562;2023-08-17T13:31:30;96761.84;;;25.00;64.80
28000;BME280;15328;50.860;10.562;2023-08-17T13:36:31;96767.69;;;25.07;65.03
28000;BME280;15328;50.860;10.562;2023-08-17T13:41:32;96772.53;;;25.10;65.16
28000;BME280;15328;50.860;10.562;2023-08-17T13:46:32;96765.47;;;25.22;64.96
28000;BME280;15328;50.860;10.562;2023-08-17T13:51:32;96768.69;;;25.24;64.47
28000;BME280;15328;50.860;10.562;2023-08-17T13:56:33;96767.47;;;25.31;64.39
28000;BME280;15328;50.860;10.562;2023-08-17T14:01:33;96766.97;;;25.29;64.74
28000;BME280;15328;50.860;10.562;2023-08-17T14:06:33;96755.97;;;25.34;64.42
28000;BME280;15328;50.860;10.562;2023-08-17T14:11:34;96750.91;;;25.41;64.52
28000;BME280;15328;50.860;10.562;2023-08-17T14:16:35;96748.69;;;25.43;64.00
28000;BME280;15328;50.860;10.562;2023-08-17T14:21:35;96759.19;;;25.36;63.63
28000;BME280;15328;50.860;10.562;2023-08-17T14:26:36;96765.38;;;25.27;63.61
28000;BME280;15328;50.860;10.562;2023-08-17T14:31:36;96764.44;;;25.18;63.75
28000;BME280;15328;50.860;10.562;2023-08-17T14:36:37;96773.94;;;25.07;64.02
28000;BME280;15328;50.860;10.562;2023-08-17T14:41:37;96769.78;;;25.10;64.12
28000;BME280;15328;50.860;10.562;2023-08-17T14:46:37;96771.50;;;25.06;64.46
28000;BME280;15328;50.860;10.562;2023-08-17T14:51:40;96766.97;;;25.01;64.51
28000;BME280;15328;50.860;10.562;2023-08-17T14:56:41;96758.59;;;24.98;64.33
28000;BME280;15328;50.860;10.562;2023-08-17T15:01:41;96760.38;;;24.88;64.95
28000;BME280;15328;50.860;10.562;2023-08-17T15:06:41;96763.91;;;24.89;64.71
28000;BME280;15328;50.860;10.562;2023-08-17T15:11:42;96759.19;;;24.94;65.07
28000;BME280;15328;50.860;10.562;2023-08-17T15:16:42;96768.28;;;25.04;65.07
28000;BME280;15328;50.860;10.562;2023-08-17T15:21:42;96739.66;;;25.06;64.81
28000;BME280;15328;50.860;10.562;2023-08-17T15:26:43;96738.25;;;25.09;64.55
28000;BME280;15328;50.860;10.562;2023-08-17T15:31:43;96745.19;;;25.15;64.12
28000;BME280;15328;50.860;10.562;2023-08-17T15:36:45;96748.22;;;25.13;64.18
28000;BME280;15328;50.860;10.562;2023-08-17T15:41:45;96749.94;;;25.09;63.96
28000;BME280;15328;50.860;10.562;2023-08-17T15:46:45;96756.69;;;25.12;64.01
28000;BME280;15328;50.860;10.562;2023-08-17T15:51:46;96762.53;;;25.19;64.07
28000;BME280;15328;50.860;10.562;2023-08-17T15:56:46;96766.06;;;25.19;64.08
28000;BME280;15328;50.860;10.562;2023-08-17T16:01:46;96764.25;;;25.15;63.15
28000;BME280;15328;50.860;10.562;2023-08-17T16:06:47;96766.88;;;25.06;63.35
28000;BME280;15328;50.860;10.562;2023-08-17T16:11:48;96752.34;;;24.97;63.49
28000;BME280;15328;50.860;10.562;2023-08-17T16:16:48;96744.25;;;24.92;63.54
28000;BME280;15328;50.860;10.562;2023-08-17T16:21:48;96756.97;;;24.83;64.03
28000;BME280;15328;50.860;10.562;2023-08-17T16:26:49;96757.34;;;24.76;64.50
28000;BME280;15328;50.860;10.562;2023-08-17T16:32:02;96753.94;;;24.71;64.83
28000;BME280;15328;50.860;10.562;2023-08-17T16:37:03;96753.72;;;24.67;64.74
28000;BME280;15328;50.860;10.562;2023-08-17T16:42:04;96747.47;;;24.67;65.16
28000;BME280;15328;50.860;10.562;2023-08-17T16:47:04;96743.34;;;24.69;65.09
28000;BME280;15328;50.860;10.562;2023-08-17T16:52:05;96732.78;;;24.68;65.33
28000;BME280;15328;50.860;10.562;2023-08-17T16:57:05;96734.91;;;24.71;65.23
28000;BME280;15328;50.860;10.562;2023-08-17T17:02:06;96743.25;;;24.74;65.42
28000;BME280;15328;50.860;10.562;2023-08-17T17:07:07;96743.88;;;24.71;65.27
28000;BME280;15328;50.860;10.562;2023-08-17T17:12:08;96741.44;;;24.70;65.36
28000;BME280;15328;50.860;10.562;2023-08-17T17:17:08;96739.91;;;24.63;65.92
28000;BME280;15328;50.860;10.562;2023-08-17T17:22:08;96725.81;;;24.61;65.89
28000;BME280;15328;50.860;10.562;2023-08-17T17:27:09;96732.53;;;24.64;65.69
28000;BME280;15328;50.860;10.562;2023-08-17T17:32:09;96750.28;;;24.61;65.94
28000;BME280;15328;50.860;10.562;2023-08-17T17:37:10;96760.66;;;24.59;66.13
28000;BME280;15328;50.860;10.562;2023-08-17T17:42:10;96766.69;;;24.56;66.28
28000;BME280;15328;50.860;10.562;2023-08-17T17:47:10;96773.31;;;24.50;66.29
28000;BME280;15328;50.860;10.562;2023-08-17T17:52:11;96796.47;;;24.48;66.58
28000;BME280;15328;50.860;10.562;2023-08-17T17:57:12;96795.78;;;24.42;66.64
28000;BME280;15328;50.860;10.562;2023-08-17T18:02:12;96792.31;;;24.37;66.96
28000;BME280;15328;50.860;10.562;2023-08-17T18:07:13;96782.31;;;24.32;67.18
28000;BME280;15328;50.860;10.562;2023-08-17T18:12:13;96779.59;;;24.32;67.13
28000;BME280;15328;50.860;10.562;2023-08-17T18:17:14;96779.41;;;24.28;67.08
28000;BME280;15328;50.860;10.562;2023-08-17T18:22:14;96791.66;;;24.26;67.47
28000;BME280;15328;50.860;10.562;2023-08-17T18:27:15;96778.16;;;24.21;67.73
28000;BME280;15328;50.860;10.562;2023-08-17T18:32:15;96774.09;;;24.18;67.61
28000;BME280;15328;50.860;10.562;2023-08-17T18:37:15;96783.66;;;24.16;67.66
28000;BME280;15328;50.860;10.562;2023-08-17T18:42:16;96797.91;;;24.08;67.75
28000;BME280;15328;50.860;10.562;2023-08-17T18:47:16;96796.38;;;24.01;68.07
28000;BME280;15328;50.860;10.562;2023-08-17T18:52:16;96801.38;;;23.94;68.15
28000;BME280;15328;50.860;10.562;2023-08-17T18:57:18;96806.66;;;23.86;68.48
28000;BME280;15328;50.860;10.562;2023-08-17T19:02:19;96801.78;;;23.83;68.38
28000;BME280;15328;50.860;10.562;2023-08-17T19:07:19;96797.03;;;23.74;68.54
28000;BME280;15328;50.860;10.562;2023-08-17T19:12:19;96817.94;;;23.74;68.53
28000;BME280;15328;50.860;10.562;2023-08-17T19:17:20;96804.44;;;23.69;68.51
28000;BME280;15328;50.860;10.562;2023-08-17T19:22:20;96804.31;;;23.55;68.78
28000;BME280;15328;50.860;10.562;2023-08-17T19:27:21;96806.28;;;23.50;69.25
28000;BME280;15328;50.860;10.562;2023-08-17T19:32:21;96798.81;;;23.41;70.00
28000;BME280;15328;50.860;10.562;2023-08-17T19:37:22;96796.38;;;23.40;69.82
28000;BME280;15328;50.860;10.562;2023-08-17T19:42:22;96793.31;;;23.23;70.28
28000;BME280;15328;50.860;10.562;2023-08-17T19:47:23;96801.75;;;23.21;70.45
28000;BME280;15328;50.860;10.562;2023-08-17T19:52:24;96799.03;;;23.21;70.49
28000;BME280;15328;50.860;10.562;2023-08-17T19:57:24;96787.97;;;23.18;70.95
28000;BME280;15328;50.860;10.562;2023-08-17T20:02:25;96795.31;;;23.17;70.84
28000;BME280;15328;50.860;10.562;2023-08-17T20:07:25;96789.34;;;23.15;70.59
28000;BME280;15328;50.860;10.562;2023-08-17T20:12:26;96810.84;;;23.11;70.71
28000;BME280;15328;50.860;10.562;2023-08-17T20:17:26;96797.09;;;23.03;70.64
28000;BME280;15328;50.860;10.562;2023-08-17T20:22:27;96792.81;;;22.97;71.22
28000;BME280;15328;50.860;10.562;2023-08-17T20:27:27;96790.09;;;22.97;71.20
28000;BME280;15328;50.860;10.562;2023-08-17T20:32:27;96798.28;;;22.92;71.33
28000;BME280;15328;50.860;10.562;2023-08-17T20:37:28;96795.88;;;22.90;71.28
28000;BME280;15328;50.860;10.562;2023-08-17T20:42:28;96794.53;;;22.88;71.38
28000;BME280;15328;50.860;10.562;2023-08-17T20:47:29;96788.97;;;22.74;71.61
28000;BME280;15328;50.860;10.562;2023-08-17T20:52:30;96790.34;;;22.71;71.87
28000;BME280;15328;50.860;10.562;2023-08-17T20:57:30;96791.78;;;22.64;72.34
28000;BME280;15328;50.860;10.562;2023-08-17T21:02:31;96799.16;;;22.58;72.65
28000;BME280;15328;50.860;10.562;2023-08-17T21:07:33;96796.72;;;22.57;72.74
28000;BME280;15328;50.860;10.562;2023-08-17T21:12:33;96794.81;;;22.57;72.55
28000;BME280;15328;50.860;10.562;2023-08-17T21:17:33;96791.03;;;22.58;72.69
28000;BME280;15328;50.860;10.562;2023-08-17T21:22:37;96800.75;;;22.59;72.39
28000;BME280;15328;50.860;10.562;2023-08-17T21:27:37;96801.81;;;22.63;72.00
28000;BME280;15328;50.860;10.562;2023-08-17T21:32:38;96799.66;;;22.60;71.87
28000;BME280;15328;50.860;10.562;2023-08-17T21:37:38;96803.47;;;22.59;71.89
28000;BME280;15328;50.860;10.562;2023-08-17T21:42:40;96799.44;;;22.57;71.92
28000;BME280;15328;50.860;10.562;2023-08-17T21:47:40;96793.78;;;22.53;71.90
28000;BME280;15328;50.860;10.562;2023-08-17T21:52:41;96800.38;;;22.42;72.16
28000;BME280;15328;50.860;10.562;2023-08-17T21:57:41;96801.47;;;22.41;72.34
28000;BME280;15328;50.860;10.562;2023-08-17T22:02:42;96806.31;;;22.44;72.59
28000;BME280;15328;50.860;10.562;2023-08-17T22:07:42;96799.56;;;22.41;72.18
28000;BME280;15328;50.860;10.562;2023-08-17T22:12:42;96807.75;;;22.36;72.34
28000;BME280;15328;50.860;10.562;2023-08-17T22:17:43;96818.06;;;22.34;72.49
28000;BME280;15328;50.860;10.562;2023-08-17T22:22:44;96809.16;;;22.29;72.58
28000;BME280;15328;50.860;10.562;2023-08-17T22:27:45;96802.69;;;22.25;72.49
28000;BME280;15328;50.860;10.562;2023-08-17T22:32:45;96800.06;;;22.14;72.72
28000;BME280;15328;50.860;10.562;2023-08-17T22:37:46;96796.81;;;22.12;72.50
28000;BME280;15328;50.860;10.562;2023-08-17T22:42:46;96795.19;;;22.11;72.39
28000;BME280;15328;50.860;10.562;2023-08-17T22:47:47;96796.63;;;21.99;72.41
28000;BME280;15328;50.860;10.562;2023-08-17T22:52:47;96789.88;;;21.96;72.63
28000;BME280;15328;50.860;10.562;2023-08-17T22:57:47;96781.75;;;21.91;72.87
28000;BME280;15328;50.860;10.562;2023-08-17T23:02:48;96780.72;;;21.92;72.54
28000;BME280;15328;50.860;10.562;2023-08-17T23:07:48;96781.50;;;21.93;72.42
28000;BME280;15328;50.860;10.562;2023-08-17T23:12:48;96776.91;;;21.93;71.93
28000;BME280;15328;50.860;10.562;2023-08-17T23:17:49;96778.53;;;21.89;72.00
28000;BME280;15328;50.860;10.562;2023-08-17T23:22:50;96780.75;;;21.82;71.85
28000;BME280;15328;50.860;10.562;2023-08-17T23:27:51;96782.38;;;21.83;71.56
28000;BME280;15328;50.860;10.562;2023-08-17T23:32:51;96786.22;;;21.77;71.29
28000;BME280;15328;50.860;10.562;2023-08-17T23:37:54;96789.19;;;21.75;71.22
28000;BME280;15328;50.860;10.562;2023-08-17T23:42:55;96791.13;;;21.70;70.86
28000;BME280;15328;50.860;10.562;2023-08-17T23:47:55;96789.28;;;21.60;71.07
28000;BME280;15328;50.860;10.562;2023-08-17T23:52:56;96788.03;;;21.42;70.98
28000;BME280;15328;50.860;10.562;2023-08-17T23:57:56;96784.84;;;21.25;70.67
